sensor_id;sensor_type;location;lat;lon;timestamp;temperature;humidity
13699;DHT22;6921;53.642;9.956;2023-09-19T00:02:37;17.40;99.90
13699;DHT22;6921;53.642;9.956;2023-09-19T00:06:45;17.30;99.90
13699;DHT22;6921;53.642;9.956;2023-09-19T00:19:17;17.10;99.90
13699;DHT22;6921;53.642;9.956;2023-09-19T00:25:33;17.10;99.90
13699;DHT22;6921;53.642;9.956;2023-09-19T00:27:37;17.10;99.90
13699;DHT22;6921;53.642;9.956;2023-09-19T00:29:43;17.10;99.90
13699;DHT22;6921;53.642;9.956;2023-09-19T00:31:46;17.10;99.90
13699;DHT22;6921;53.642;9.956;2023-09-19T00:33:51;17.10;99.90
13699;DHT22;6921;53.642;9.956;2023-09-19T00:42:18;17.10;99.90
13699;DHT22;6921;53.642;9.956;2023-09-19T00:44:23;17.10;99.90
13699;DHT22;6921;53.642;9.956;2023-09-19T00:48:30;17.10;99.90
13699;DHT22;6921;53.642;9.956;2023-09-19T01:00:54;17.10;99.90
13699;DHT22;6921;53.642;9.956;2023-09-19T01:02:57;17.40;99.90
13699;DHT22;6921;53.642;9.956;2023-09-19T01:05:01;17.00;99.90
13699;DHT22;6921;53.642;9.956;2023-09-19T01:07:08;17.00;99.90
13699;DHT22;6921;53.642;9.956;2023-09-19T01:09:12;17.10;99.90
13699;DHT22;6921;53.642;9.956;2023-09-19T01:22:20;17.00;99.90
13699;DHT22;6921;53.642;9.956;2023-09-19T01:52:20;16.90;99.90
13699;DHT22;6921;53.642;9.956;2023-09-19T01:54:27;16.90;99.90
13699;DHT22;6921;53.642;9.956;2023-09-19T01:56:37;16.90;99.90
13699;DHT22;6921;53.642;9.956;2023-09-19T01:58:48;16.90;99.90
13699;DHT22;6921;53.642;9.956;2023-09-19T02:05:02;16.80;99.90
13699;DHT22;6921;53.642;9.956;2023-09-19T02:13:19;16.70;99.90
13699;DHT22;6921;53.642;9.956;2023-09-19T02:21:35;16.50;99.90
13699;DHT22;6921;53.642;9.956;2023-09-19T02:27:58;16.60;99.90
13699;DHT22;6921;53.642;9.956;2023-09-19T02:32:09;16.60;99.90
13699;DHT22;6921;53.642;9.956;2023-09-19T02:36:16;16.60;99.90
13699;DHT22;6921;53.642;9.956;2023-09-19T02:38:22;16.50;99.90
13699;DHT22;6921;53.642;9.956;2023-09-19T02:40:26;16.60;99.90
13699;DHT22;6921;53.642;9.956;2023-09-19T02:46:37;16.40;99.90
13699;DHT22;6921;53.642;9.956;2023-09-19T03:05:18;16.50;99.90
13699;DHT22;6921;53.642;9.956;2023-09-19T03:11:32;16.50;99.90
13699;DHT22;6921;53.642;9.956;2023-09-19T03:13:35;16.40;99.90
13699;DHT22;6921;53.642;9.956;2023-09-19T03:46:48;16.30;99.90
13699;DHT22;6921;53.642;9.956;2023-09-19T03:55:03;16.30;99.90
13699;DHT22;6921;53.642;9.956;2023-09-19T03:57:06;16.40;99.90
13699;DHT22;6921;53.642;9.956;2023-09-19T04:01:15;16.30;99.90
13699;DHT22;6921;53.642;9.956;2023-09-19T04:03:19;16.00;99.90
13699;DHT22;6921;53.642;9.956;2023-09-19T04:21:58;15.90;99.90
13699;DHT22;6921;53.642;9.956;2023-09-19T04:24:01;15.50;99.90
13699;DHT22;6921;53.642;9.956;2023-09-19T04:30:12;15.70;99.90
13699;DHT22;6921;53.642;9.956;2023-09-19T04:32:16;15.70;99.90
13699;DHT22;6921;53.642;9.956;2023-09-19T04:36:25;15.60;99.90
13699;DHT22;6921;53.642;9.956;2023-09-19T04:38:36;15.50;99.90
13699;DHT22;6921;53.642;9.956;2023-09-19T04:44:47;15.40;99.90
13699;DHT22;6921;53.642;9.956;2023-09-19T04:46:51;15.40;99.90
13699;DHT22;6921;53.642;9.956;2023-09-19T04:48:54;15.40;99.90
13699;DHT22;6921;53.642;9.956;2023-09-19T05:07:39;15.20;99.90
13699;DHT22;6921;53.642;9.956;2023-09-19T05:09:41;15.20;99.90
13699;DHT22;6921;53.642;9.956;2023-09-19T05:13:48;15.10;99.90
13699;DHT22;6921;53.642;9.956;2023-09-19T05:15:53;15.30;99.90
13699;DHT22;6921;53.642;9.956;2023-09-19T05:17:58;15.10;99.90
13699;DHT22;6921;53.642;9.956;2023-09-19T05:30:42;15.00;99.90
13699;DHT22;6921;53.642;9.956;2023-09-19T05:41:07;14.90;99.90
13699;DHT22;6921;53.642;9.956;2023-09-19T05:43:11;14.90;99.90
13699;DHT22;6921;53.642;9.956;2023-09-19T05:49:33;14.90;99.90
13699;DHT22;6921;53.642;9.956;2023-09-19T05:51:36;14.30;99.90
13699;DHT22;6921;53.642;9.956;2023-09-19T05:53:41;14.90;99.90
13699;DHT22;6921;53.642;9.956;2023-09-19T05:57:51;14.90;99.90
13699;DHT22;6921;53.642;9.956;2023-09-19T05:59:54;15.30;99.90
13699;DHT22;6921;53.642;9.956;2023-09-19T06:01:57;15.00;99.90
13699;DHT22;6921;53.642;9.956;2023-09-19T06:04:01;14.90;99.90
13699;DHT22;6921;53.642;9.956;2023-09-19T06:06:06;15.10;99.90
13699;DHT22;6921;53.642;9.956;2023-09-19T06:08:09;15.00;99.90
13699;DHT22;6921;53.642;9.956;2023-09-19T06:10:13;15.40;99.90
13699;DHT22;6921;53.642;9.956;2023-09-19T06:12:16;15.10;99.90
13699;DHT22;6921;53.642;9.956;2023-09-19T06:14:21;15.50;99.90
13699;DHT22;6921;53.642;9.956;2023-09-19T06:16:26;15.30;99.90
13699;DHT22;6921;53.642;9.956;2023-09-19T06:18:30;15.50;99.90
13699;DHT22;6921;53.642;9.956;2023-09-19T06:20:35;15.50;99.90
13699;DHT22;6921;53.642;9.956;2023-09-19T06:22:39;15.60;99.90
13699;DHT22;6921;53.642;9.956;2023-09-19T06:24:43;15.80;99.90
13699;DHT22;6921;53.642;9.956;2023-09-19T06:26:46;15.70;99.90
13699;DHT22;6921;53.642;9.956;2023-09-19T06:28:51;15.70;99.90
13699;DHT22;6921;53.642;9.956;2023-09-19T06:30:56;15.80;99.90
13699;DHT22;6921;53.642;9.956;2023-09-19T06:33:00;15.70;99.90
13699;DHT22;6921;53.642;9.956;2023-09-19T06:35:05;15.80;99.90
13699;DHT22;6921;53.642;9.956;2023-09-19T06:41:18;15.60;99.90
13699;DHT22;6921;53.642;9.956;2023-09-19T06:43:23;15.70;99.90
13699;DHT22;6921;53.642;9.956;2023-09-19T07:10:47;15.80;99.90
13699;DHT22;6921;53.642;9.956;2023-09-19T07:12:56;15.90;99.90
13699;DHT22;6921;53.642;9.956;2023-09-19T07:15:00;16.10;99.90
13699;DHT22;6921;53.642;9.956;2023-09-19T07:17:03;15.90;99.90
13699;DHT22;6921;53.642;9.956;2023-09-19T07:39:55;16.10;99.90
13699;DHT22;6921;53.642;9.956;2023-09-19T07:46:05;16.00;99.90
13699;DHT22;6921;53.642;9.956;2023-09-19T07:48:13;15.90;99.90
13699;DHT22;6921;53.642;9.956;2023-09-19T07:50:18;16.00;99.90
13699;DHT22;6921;53.642;9.956;2023-09-19T07:52:21;16.00;99.90
13699;DHT22;6921;53.642;9.956;2023-09-19T07:58:39;16.00;99.90
13699;DHT22;6921;53.642;9.956;2023-09-19T08:07:08;15.90;99.90
13699;DHT22;6921;53.642;9.956;2023-09-19T08:09:12;15.70;99.90
13699;DHT22;6921;53.642;9.956;2023-09-19T08:11:26;15.80;99.90
13699;DHT22;6921;53.642;9.956;2023-09-19T08:17:42;15.90;99.90
13699;DHT22;6921;53.642;9.956;2023-09-19T08:26:06;16.10;99.90
13699;DHT22;6921;53.642;9.956;2023-09-19T08:47:15;16.40;99.90
13699;DHT22;6921;53.642;9.956;2023-09-19T09:02:25;16.30;99.90
13699;DHT22;6921;53.642;9.956;2023-09-19T09:04:29;16.40;99.90
13699;DHT22;6921;53.642;9.956;2023-09-19T09:19:07;16.60;99.90
13699;DHT22;6921;53.642;9.956;2023-09-19T09:23:17;16.60;99.90
13699;DHT22;6921;53.642;9.956;2023-09-19T09:49:32;17.20;99.90
13699;DHT22;6921;53.642;9.956;2023-09-19T10:02:35;17.50;99.90
13699;DHT22;6921;53.642;9.956;2023-09-19T10:04:43;17.60;99.90
13699;DHT22;6921;53.642;9.956;2023-09-19T10:15:51;17.80;99.90
13699;DHT22;6921;53.642;9.956;2023-09-19T10:34:58;18.40;99.90
13699;DHT22;6921;53.642;9.956;2023-09-19T10:37:04;18.40;99.90
13699;DHT22;6921;53.642;9.956;2023-09-19T10:39:11;18.50;99.90
13699;DHT22;6921;53.642;9.956;2023-09-19T10:41:16;18.50;99.90
13699;DHT22;6921;53.642;9.956;2023-09-19T10:43:30;18.50;99.90
13699;DHT22;6921;53.642;9.956;2023-09-19T10:45:39;18.60;99.90
13699;DHT22;6921;53.642;9.956;2023-09-19T10:49:47;18.50;99.90
13699;DHT22;6921;53.642;9.956;2023-09-19T10:51:53;19.40;99.90
13699;DHT22;6921;53.642;9.956;2023-09-19T10:54:05;18.60;99.90
13699;DHT22;6921;53.642;9.956;2023-09-19T10:56:09;18.40;99.90
13699;DHT22;6921;53.642;9.956;2023-09-19T11:00:30;18.60;99.90
13699;DHT22;6921;53.642;9.956;2023-09-19T11:09:14;18.60;99.90
13699;DHT22;6921;53.642;9.956;2023-09-19T11:36:48;18.80;99.90
13699;DHT22;6921;53.642;9.956;2023-09-19T11:38:58;19.00;99.90
13699;DHT22;6921;53.642;9.956;2023-09-19T11:41:37;19.00;99.90
13699;DHT22;6921;53.642;9.956;2023-09-19T11:43:42;19.00;99.90
13699;DHT22;6921;53.642;9.956;2023-09-19T11:48:08;19.10;99.90
13699;DHT22;6921;53.642;9.956;2023-09-19T11:50:19;19.20;99.90
13699;DHT22;6921;53.642;9.956;2023-09-19T11:52:24;19.30;99.90
13699;DHT22;6921;53.642;9.956;2023-09-19T11:56:39;19.50;99.90
13699;DHT22;6921;53.642;9.956;2023-09-19T11:58:45;19.60;99.90
13699;DHT22;6921;53.642;9.956;2023-09-19T12:00:54;19.80;99.90
13699;DHT22;6921;53.642;9.956;2023-09-19T12:03:03;19.70;99.90
13699;DHT22;6921;53.642;9.956;2023-09-19T12:05:08;19.70;99.90
13699;DHT22;6921;53.642;9.956;2023-09-19T12:07:14;19.80;99.90
13699;DHT22;6921;53.642;9.956;2023-09-19T12:09:19;19.80;99.90
13699;DHT22;6921;53.642;9.956;2023-09-19T12:11:27;20.10;99.90
13699;DHT22;6921;53.642;9.956;2023-09-19T12:13:30;19.90;99.90
13699;DHT22;6921;53.642;9.956;2023-09-19T12:15:35;20.20;99.90
13699;DHT22;6921;53.642;9.956;2023-09-19T12:17:41;20.20;99.90
13699;DHT22;6921;53.642;9.956;2023-09-19T12:19:50;20.00;99.90
13699;DHT22;6921;53.642;9.956;2023-09-19T12:21:55;20.00;99.90
13699;DHT22;6921;53.642;9.956;2023-09-19T12:24:04;20.40;99.90
13699;DHT22;6921;53.642;9.956;2023-09-19T12:26:07;20.50;99.90
13699;DHT22;6921;53.642;9.956;2023-09-19T12:28:14;20.40;99.90
13699;DHT22;6921;53.642;9.956;2023-09-19T12:30:19;20.30;99.90
13699;DHT22;6921;53.642;9.956;2023-09-19T12:32:35;20.50;99.90
13699;DHT22;6921;53.642;9.956;2023-09-19T12:34:40;21.00;99.90
13699;DHT22;6921;53.642;9.956;2023-09-19T12:36:45;21.50;99.90
13699;DHT22;6921;53.642;9.956;2023-09-19T12:38:48;22.50;99.90
13699;DHT22;6921;53.642;9.956;2023-09-19T12:40:52;22.40;99.90
13699;DHT22;6921;53.642;9.956;2023-09-19T12:42:56;22.30;99.90
13699;DHT22;6921;53.642;9.956;2023-09-19T12:45:00;22.10;99.90
13699;DHT22;6921;53.642;9.956;2023-09-19T12:47:09;21.60;99.90
13699;DHT22;6921;53.642;9.956;2023-09-19T12:49:17;21.50;99.90
13699;DHT22;6921;53.642;9.956;2023-09-19T12:51:21;21.90;99.90
13699;DHT22;6921;53.642;9.956;2023-09-19T12:53:28;22.20;99.90
13699;DHT22;6921;53.642;9.956;2023-09-19T12:55:31;21.80;99.90
13699;DHT22;6921;53.642;9.956;2023-09-19T12:57:35;21.50;99.90
13699;DHT22;6921;53.642;9.956;2023-09-19T12:59:37;21.00;99.90
13699;DHT22;6921;53.642;9.956;2023-09-19T13:01:42;21.00;99.90
13699;DHT22;6921;53.642;9.956;2023-09-19T13:04:11;20.90;99.90
13699;DHT22;6921;53.642;9.956;2023-09-19T13:06:35;20.90;99.90
13699;DHT22;6921;53.642;9.956;2023-09-19T13:08:42;20.60;99.90
13699;DHT22;6921;53.642;9.956;2023-09-19T13:11:07;20.50;99.90
13699;DHT22;6921;53.642;9.956;2023-09-19T13:13:24;20.50;99.90
13699;DHT22;6921;53.642;9.956;2023-09-19T13:15:53;20.50;99.90
13699;DHT22;6921;53.642;9.956;2023-09-19T13:17:58;20.60;99.90
13699;DHT22;6921;53.642;9.956;2023-09-19T13:20:05;20.60;99.90
13699;DHT22;6921;53.642;9.956;2023-09-19T13:22:40;20.70;99.90
13699;DHT22;6921;53.642;9.956;2023-09-19T13:33:05;20.70;99.90
13699;DHT22;6921;53.642;9.956;2023-09-19T13:39:21;20.90;99.90
13699;DHT22;6921;53.642;9.956;2023-09-19T13:43:30;20.40;99.90
13699;DHT22;6921;53.642;9.956;2023-09-19T13:47:39;20.70;99.90
13699;DHT22;6921;53.642;9.956;2023-09-19T13:55:54;20.80;99.90
13699;DHT22;6921;53.642;9.956;2023-09-19T14:02:04;20.90;99.90
13699;DHT22;6921;53.642;9.956;2023-09-19T14:12:25;18.30;99.90
13699;DHT22;6921;53.642;9.956;2023-09-19T14:18:36;21.70;99.90
13699;DHT22;6921;53.642;9.956;2023-09-19T14:24:47;21.90;99.90
13699;DHT22;6921;53.642;9.956;2023-09-19T14:28:55;21.80;99.90
13699;DHT22;6921;53.642;9.956;2023-09-19T14:31:04;21.60;99.90
13699;DHT22;6921;53.642;9.956;2023-09-19T14:41:23;20.80;99.90
13699;DHT22;6921;53.642;9.956;2023-09-19T14:45:32;20.60;99.90
13699;DHT22;6921;53.642;9.956;2023-09-19T15:02:09;20.10;1.00
13699;DHT22;6921;53.642;9.956;2023-09-19T15:14:31;19.90;1.00
13699;DHT22;6921;53.642;9.956;2023-09-19T15:18:42;19.60;99.90
13699;DHT22;6921;53.642;9.956;2023-09-19T15:26:58;19.40;99.90
13699;DHT22;6921;53.642;9.956;2023-09-19T15:31:06;19.60;99.90
13699;DHT22;6921;53.642;9.956;2023-09-19T15:33:10;19.70;99.90
13699;DHT22;6921;53.642;9.956;2023-09-19T15:35:15;19.60;99.90
13699;DHT22;6921;53.642;9.956;2023-09-19T15:37:20;19.60;99.90
13699;DHT22;6921;53.642;9.956;2023-09-19T15:41:26;19.60;99.90
13699;DHT22;6921;53.642;9.956;2023-09-19T15:43:31;19.60;99.90
13699;DHT22;6921;53.642;9.956;2023-09-19T15:45:37;19.60;99.90
13699;DHT22;6921;53.642;9.956;2023-09-19T15:51:49;19.40;99.90
13699;DHT22;6921;53.642;9.956;2023-09-19T15:53:52;19.40;99.90
13699;DHT22;6921;53.642;9.956;2023-09-19T16:06:20;19.30;99.90
13699;DHT22;6921;53.642;9.956;2023-09-19T16:08:26;19.30;99.90
13699;DHT22;6921;53.642;9.956;2023-09-19T16:10:34;19.10;99.90
13699;DHT22;6921;53.642;9.956;2023-09-19T16:12:39;19.30;99.90
13699;DHT22;6921;53.642;9.956;2023-09-19T16:14:43;19.40;99.90
13699;DHT22;6921;53.642;9.956;2023-09-19T16:18:53;19.20;99.90
13699;DHT22;6921;53.642;9.956;2023-09-19T16:21:02;19.20;99.90
13699;DHT22;6921;53.642;9.956;2023-09-19T16:23:05;19.20;99.90
13699;DHT22;6921;53.642;9.956;2023-09-19T16:25:11;19.20;99.90
13699;DHT22;6921;53.642;9.956;2023-09-19T16:29:22;18.90;99.90
13699;DHT22;6921;53.642;9.956;2023-09-19T16:31:26;19.20;99.90
13699;DHT22;6921;53.642;9.956;2023-09-19T16:33:31;19.30;99.90
13699;DHT22;6921;53.642;9.956;2023-09-19T16:35:37;19.00;99.90
13699;DHT22;6921;53.642;9.956;2023-09-19T16:37:41;19.20;99.90
13699;DHT22;6921;53.642;9.956;2023-09-19T16:39:44;19.20;99.90
13699;DHT22;6921;53.642;9.956;2023-09-19T16:41:49;19.10;99.90
13699;DHT22;6921;53.642;9.956;2023-09-19T16:43:53;19.20;99.90
13699;DHT22;6921;53.642;9.956;2023-09-19T16:45:56;19.10;99.90
13699;DHT22;6921;53.642;9.956;2023-09-19T16:48:00;19.10;99.90
13699;DHT22;6921;53.642;9.956;2023-09-19T16:52:08;19.10;99.90
13699;DHT22;6921;53.642;9.956;2023-09-19T16:56:16;19.00;99.90
13699;DHT22;6921;53.642;9.956;2023-09-19T16:58:24;19.20;99.90
13699;DHT22;6921;53.642;9.956;2023-09-19T17:08:49;19.00;99.90
13699;DHT22;6921;53.642;9.956;2023-09-19T17:11:00;18.90;99.90
13699;DHT22;6921;53.642;9.956;2023-09-19T17:13:04;19.00;99.90
13699;DHT22;6921;53.642;9.956;2023-09-19T17:15:11;19.00;99.90
13699;DHT22;6921;53.642;9.956;2023-09-19T17:21:25;19.10;99.90
13699;DHT22;6921;53.642;9.956;2023-09-19T17:23:30;19.00;99.90
13699;DHT22;6921;53.642;9.956;2023-09-19T17:29:42;18.90;99.90
13699;DHT22;6921;53.642;9.956;2023-09-19T17:31:47;19.10;99.90
13699;DHT22;6921;53.642;9.956;2023-09-19T17:33:51;19.00;99.90
13699;DHT22;6921;53.642;9.956;2023-09-19T17:36:05;18.90;99.90
13699;DHT22;6921;53.642;9.956;2023-09-19T17:38:08;19.00;99.90
13699;DHT22;6921;53.642;9.956;2023-09-19T17:40:12;19.10;99.90
13699;DHT22;6921;53.642;9.956;2023-09-19T17:44:19;18.70;99.90
13699;DHT22;6921;53.642;9.956;2023-09-19T17:46:23;18.90;99.90
13699;DHT22;6921;53.642;9.956;2023-09-19T17:48:29;19.00;99.90
13699;DHT22;6921;53.642;9.956;2023-09-19T17:52:39;19.00;99.90
13699;DHT22;6921;53.642;9.956;2023-09-19T17:54:43;19.00;99.90
13699;DHT22;6921;53.642;9.956;2023-09-19T17:56:47;19.00;99.90
13699;DHT22;6921;53.642;9.956;2023-09-19T17:58:53;19.00;99.90
13699;DHT22;6921;53.642;9.956;2023-09-19T18:00:57;19.00;99.90
13699;DHT22;6921;53.642;9.956;2023-09-19T18:03:01;19.00;99.90
13699;DHT22;6921;53.642;9.956;2023-09-19T18:05:08;19.00;99.90
13699;DHT22;6921;53.642;9.956;2023-09-19T18:07:18;19.00;99.90
13699;DHT22;6921;53.642;9.956;2023-09-19T18:09:21;19.00;99.90
13699;DHT22;6921;53.642;9.956;2023-09-19T18:11:25;19.00;99.90
13699;DHT22;6921;53.642;9.956;2023-09-19T18:13:28;18.80;99.90
13699;DHT22;6921;53.642;9.956;2023-09-19T18:15:32;19.00;99.90
13699;DHT22;6921;53.642;9.956;2023-09-19T18:17:39;19.00;99.90
13699;DHT22;6921;53.642;9.956;2023-09-19T18:19:42;19.00;99.90
13699;DHT22;6921;53.642;9.956;2023-09-19T18:21:47;19.00;99.90
13699;DHT22;6921;53.642;9.956;2023-09-19T18:23:54;19.00;99.90
13699;DHT22;6921;53.642;9.956;2023-09-19T18:25:59;19.00;99.90
13699;DHT22;6921;53.642;9.956;2023-09-19T18:28:02;19.00;99.90
13699;DHT22;6921;53.642;9.956;2023-09-19T18:30:07;19.00;99.90
13699;DHT22;6921;53.642;9.956;2023-09-19T18:32:10;18.80;99.90
13699;DHT22;6921;53.642;9.956;2023-09-19T18:34:13;19.00;99.90
13699;DHT22;6921;53.642;9.956;2023-09-19T18:36:16;18.90;99.90
13699;DHT22;6921;53.642;9.956;2023-09-19T18:38:21;19.00;99.90
13699;DHT22;6921;53.642;9.956;2023-09-19T18:44:34;17.10;99.90
13699;DHT22;6921;53.642;9.956;2023-09-19T18:46:39;19.00;99.90
13699;DHT22;6921;53.642;9.956;2023-09-19T18:48:45;19.00;99.90
13699;DHT22;6921;53.642;9.956;2023-09-19T18:50:49;19.00;99.90
13699;DHT22;6921;53.642;9.956;2023-09-19T18:52:53;19.00;99.90
13699;DHT22;6921;53.642;9.956;2023-09-19T18:54:57;18.10;99.90
13699;DHT22;6921;53.642;9.956;2023-09-19T18:57:01;18.90;99.90
13699;DHT22;6921;53.642;9.956;2023-09-19T18:59:05;18.90;99.90
13699;DHT22;6921;53.642;9.956;2023-09-19T19:01:11;19.10;99.90
13699;DHT22;6921;53.642;9.956;2023-09-19T19:03:17;18.80;99.90
13699;DHT22;6921;53.642;9.956;2023-09-19T19:07:25;18.80;99.90
13699;DHT22;6921;53.642;9.956;2023-09-19T19:09:28;18.90;99.90
13699;DHT22;6921;53.642;9.956;2023-09-19T19:11:34;18.90;99.90
13699;DHT22;6921;53.642;9.956;2023-09-19T19:13:38;18.90;99.90
13699;DHT22;6921;53.642;9.956;2023-09-19T19:15:41;18.70;99.90
13699;DHT22;6921;53.642;9.956;2023-09-19T19:17:45;18.90;99.90
13699;DHT22;6921;53.642;9.956;2023-09-19T19:19:49;18.90;99.90
13699;DHT22;6921;53.642;9.956;2023-09-19T19:21:53;18.90;99.90
13699;DHT22;6921;53.642;9.956;2023-09-19T19:23:56;18.90;99.90
13699;DHT22;6921;53.642;9.956;2023-09-19T19:26:01;18.90;99.90
13699;DHT22;6921;53.642;9.956;2023-09-19T19:28:07;18.90;99.90
13699;DHT22;6921;53.642;9.956;2023-09-19T19:30:11;18.90;99.90
13699;DHT22;6921;53.642;9.956;2023-09-19T19:32:15;18.90;99.90
13699;DHT22;6921;53.642;9.956;2023-09-19T19:34:18;18.70;99.90
13699;DHT22;6921;53.642;9.956;2023-09-19T19:36:20;18.80;99.90
13699;DHT22;6921;53.642;9.956;2023-09-19T19:38:24;18.80;99.90
13699;DHT22;6921;53.642;9.956;2023-09-19T19:40:28;18.80;99.90
13699;DHT22;6921;53.642;9.956;2023-09-19T19:42:32;18.80;99.90
13699;DHT22;6921;53.642;9.956;2023-09-19T19:44:36;18.80;99.90
13699;DHT22;6921;53.642;9.956;2023-09-19T19:46:40;18.80;99.90
13699;DHT22;6921;53.642;9.956;2023-09-19T19:48:47;18.80;99.90
13699;DHT22;6921;53.642;9.956;2023-09-19T19:50:51;18.80;99.90
13699;DHT22;6921;53.642;9.956;2023-09-19T19:52:56;18.80;99.90
13699;DHT22;6921;53.642;9.956;2023-09-19T19:55:02;18.80;99.90
13699;DHT22;6921;53.642;9.956;2023-09-19T19:57:05;18.90;99.90
13699;DHT22;6921;53.642;9.956;2023-09-19T19:59:09;18.70;99.90
13699;DHT22;6921;53.642;9.956;2023-09-19T20:01:17;18.70;99.90
13699;DHT22;6921;53.642;9.956;2023-09-19T20:03:20;18.80;99.90
13699;DHT22;6921;53.642;9.956;2023-09-19T20:05:23;18.70;99.90
13699;DHT22;6921;53.642;9.956;2023-09-19T20:07:26;18.70;99.90
13699;DHT22;6921;53.642;9.956;2023-09-19T20:09:30;18.70;99.90
13699;DHT22;6921;53.642;9.956;2023-09-19T20:11:33;18.70;99.90
13699;DHT22;6921;53.642;9.956;2023-09-19T20:13:40;18.70;99.90
13699;DHT22;6921;53.642;9.956;2023-09-19T20:15:53;18.70;99.90
13699;DHT22;6921;53.642;9.956;2023-09-19T20:17:59;18.60;99.90
13699;DHT22;6921;53.642;9.956;2023-09-19T20:20:04;18.70;99.90
13699;DHT22;6921;53.642;9.956;2023-09-19T20:22:14;18.70;99.90
13699;DHT22;6921;53.642;9.956;2023-09-19T20:24:17;18.60;99.90
13699;DHT22;6921;53.642;9.956;2023-09-19T20:26:25;18.60;99.90
13699;DHT22;6921;53.642;9.956;2023-09-19T20:28:28;18.70;99.90
13699;DHT22;6921;53.642;9.956;2023-09-19T20:32:36;18.90;99.90
13699;DHT22;6921;53.642;9.956;2023-09-19T20:34:41;18.70;99.90
13699;DHT22;6921;53.642;9.956;2023-09-19T20:36:44;18.50;99.90
13699;DHT22;6921;53.642;9.956;2023-09-19T20:38:49;18.70;99.90
13699;DHT22;6921;53.642;9.956;2023-09-19T20:40:51;18.60;99.90
13699;DHT22;6921;53.642;9.956;2023-09-19T20:42:54;18.70;99.90
13699;DHT22;6921;53.642;9.956;2023-09-19T20:44:57;18.60;99.90
13699;DHT22;6921;53.642;9.956;2023-09-19T20:47:01;18.50;99.90
13699;DHT22;6921;53.642;9.956;2023-09-19T20:49:06;18.60;99.90
13699;DHT22;6921;53.642;9.956;2023-09-19T20:51:12;18.60;99.90
13699;DHT22;6921;53.642;9.956;2023-09-19T20:53:16;18.50;99.90
13699;DHT22;6921;53.642;9.956;2023-09-19T20:55:19;18.60;99.90
13699;DHT22;6921;53.642;9.956;2023-09-19T20:57:22;18.40;99.90
13699;DHT22;6921;53.642;9.956;2023-09-19T20:59:26;18.40;99.90
13699;DHT22;6921;53.642;9.956;2023-09-19T21:01:30;18.30;99.90
13699;DHT22;6921;53.642;9.956;2023-09-19T21:03:35;18.10;99.90
13699;DHT22;6921;53.642;9.956;2023-09-19T21:05:37;18.20;99.90
13699;DHT22;6921;53.642;9.956;2023-09-19T21:07:42;18.20;99.90
13699;DHT22;6921;53.642;9.956;2023-09-19T21:09:46;18.20;99.90
13699;DHT22;6921;53.642;9.956;2023-09-19T21:11:49;18.40;99.90
13699;DHT22;6921;53.642;9.956;2023-09-19T21:13:53;18.30;99.90
13699;DHT22;6921;53.642;9.956;2023-09-19T21:15:56;18.10;99.90
13699;DHT22;6921;53.642;9.956;2023-09-19T21:17:59;18.30;99.90
13699;DHT22;6921;53.642;9.956;2023-09-19T21:20:03;18.20;99.90
13699;DHT22;6921;53.642;9.956;2023-09-19T21:22:10;18.20;99.90
13699;DHT22;6921;53.642;9.956;2023-09-19T21:24:15;18.00;99.90
13699;DHT22;6921;53.642;9.956;2023-09-19T21:26:20;18.10;99.90
13699;DHT22;6921;53.642;9.956;2023-09-19T21:28:23;18.10;99.90
13699;DHT22;6921;53.642;9.956;2023-09-19T21:30:27;18.20;99.90
13699;DHT22;6921;53.642;9.956;2023-09-19T21:32:30;18.00;99.90
13699;DHT22;6921;53.642;9.956;2023-09-19T21:34:33;18.00;99.90
13699;DHT22;6921;53.642;9.956;2023-09-19T21:36:37;18.00;99.90
13699;DHT22;6921;53.642;9.956;2023-09-19T21:38:40;18.00;99.90
13699;DHT22;6921;53.642;9.956;2023-09-19T21:40:45;18.10;99.90
13699;DHT22;6921;53.642;9.956;2023-09-19T21:42:49;18.20;99.90
13699;DHT22;6921;53.642;9.956;2023-09-19T21:46:57;18.10;99.90
13699;DHT22;6921;53.642;9.956;2023-09-19T21:49:03;18.20;99.90
13699;DHT22;6921;53.642;9.956;2023-09-19T21:51:07;18.10;99.90
13699;DHT22;6921;53.642;9.956;2023-09-19T21:53:11;18.10;99.90
13699;DHT22;6921;53.642;9.956;2023-09-19T21:55:13;18.30;99.90
13699;DHT22;6921;53.642;9.956;2023-09-19T21:57:18;18.10;99.90
13699;DHT22;6921;53.642;9.956;2023-09-19T21:59:21;18.10;99.90
13699;DHT22;6921;53.642;9.956;2023-09-19T22:01:25;18.10;99.90
13699;DHT22;6921;53.642;9.956;2023-09-19T22:03:29;18.10;99.90
13699;DHT22;6921;53.642;9.956;2023-09-19T22:05:33;18.20;99.90
13699;DHT22;6921;53.642;9.956;2023-09-19T22:07:39;17.80;99.90
13699;DHT22;6921;53.642;9.956;2023-09-19T22:11:49;17.90;99.90
13699;DHT22;6921;53.642;9.956;2023-09-19T22:13:54;17.90;99.90
13699;DHT22;6921;53.642;9.956;2023-09-19T22:15:58;17.80;99.90
13699;DHT22;6921;53.642;9.956;2023-09-19T22:18:02;17.50;99.90
13699;DHT22;6921;53.642;9.956;2023-09-19T22:20:08;17.80;99.90
13699;DHT22;6921;53.642;9.956;2023-09-19T22:22:28;17.70;99.90
13699;DHT22;6921;53.642;9.956;2023-09-19T22:24:34;17.60;99.90
13699;DHT22;6921;53.642;9.956;2023-09-19T22:26:37;17.50;99.90
13699;DHT22;6921;53.642;9.956;2023-09-19T22:28:50;17.50;99.90
13699;DHT22;6921;53.642;9.956;2023-09-19T22:30:56;17.40;99.90
13699;DHT22;6921;53.642;9.956;2023-09-19T22:33:00;17.40;99.90
13699;DHT22;6921;53.642;9.956;2023-09-19T22:35:05;17.40;99.90
13699;DHT22;6921;53.642;9.956;2023-09-19T22:37:31;17.30;99.90
13699;DHT22;6921;53.642;9.956;2023-09-19T22:41:38;17.20;99.90
13699;DHT22;6921;53.642;9.956;2023-09-19T22:43:43;17.00;99.90
13699;DHT22;6921;53.642;9.956;2023-09-19T22:45:51;17.20;99.90
13699;DHT22;6921;53.642;9.956;2023-09-19T22:48:03;17.10;99.90
13699;DHT22;6921;53.642;9.956;2023-09-19T22:50:13;17.10;99.90
13699;DHT22;6921;53.642;9.956;2023-09-19T22:52:19;17.10;99.90
13699;DHT22;6921;53.642;9.956;2023-09-19T22:54:23;17.10;99.90
13699;DHT22;6921;53.642;9.956;2023-09-19T22:56:35;17.00;99.90
13699;DHT22;6921;53.642;9.956;2023-09-19T22:58:38;17.00;99.90
13699;DHT22;6921;53.642;9.956;2023-09-19T23:00:46;17.00;99.90
13699;DHT22;6921;53.642;9.956;2023-09-19T23:02:52;17.00;99.90
13699;DHT22;6921;53.642;9.956;2023-09-19T23:05:00;16.90;99.90
13699;DHT22;6921;53.642;9.956;2023-09-19T23:09:10;16.70;99.90
13699;DHT22;6921;53.642;9.956;2023-09-19T23:11:22;16.90;99.90
13699;DHT22;6921;53.642;9.956;2023-09-19T23:13:27;16.90;99.90
13699;DHT22;6921;53.642;9.956;2023-09-19T23:17:32;16.80;99.90
13699;DHT22;6921;53.642;9.956;2023-09-19T23:19:38;16.80;99.90
13699;DHT22;6921;53.642;9.956;2023-09-19T23:21:44;16.70;99.90
13699;DHT22;6921;53.642;9.956;2023-09-19T23:23:47;16.80;99.90
13699;DHT22;6921;53.642;9.956;2023-09-19T23:25:53;16.80;99.90
13699;DHT22;6921;53.642;9.956;2023-09-19T23:27:56;16.80;99.90
13699;DHT22;6921;53.642;9.956;2023-09-19T23:30:01;16.80;99.90
13699;DHT22;6921;53.642;9.956;2023-09-19T23:32:08;16.80;99.90
13699;DHT22;6921;53.642;9.956;2023-09-19T23:34:12;16.70;99.90
13699;DHT22;6921;53.642;9.956;2023-09-19T23:36:17;16.80;99.90
13699;DHT22;6921;53.642;9.956;2023-09-19T23:38:22;16.80;99.90
13699;DHT22;6921;53.642;9.956;2023-09-19T23:42:30;16.90;99.90
13699;DHT22;6921;53.642;9.956;2023-09-19T23:44:32;16.90;99.90